createdAt,value
2023-05-04T05:03:54.125Z,79.10
2023-05-04T05:06:56.261Z,78.90
2023-05-04T05:09:58.703Z,78.80
2023-05-04T05:13:00.970Z,78.70
2023-05-04T05:16:02.818Z,78.60
2023-05-04T05:19:04.586Z,78.40
2023-05-04T05:22:06.212Z,78.30
2023-05-04T05:25:08.458Z,78.20
2023-05-04T05:28:10.407Z,78.10
2023-05-04T05:31:12.077Z,78.00
2023-05-04T05:34:13.891Z,78.00
2023-05-04T05:37:15.525Z,77.90
2023-05-04T05:40:17.546Z,77.80
2023-05-04T05:43:19.437Z,77.80
2023-05-04T05:46:22.770Z,77.60
2023-05-04T05:49:24.401Z,77.50
2023-05-04T05:52:26.685Z,77.20
2023-05-04T05:55:28.333Z,77.10
2023-05-04T05:58:30.047Z,76.90
2023-05-04T06:01:32.839Z,76.80
2023-05-04T06:04:34.558Z,76.70
2023-05-04T06:07:36.248Z,76.60
2023-05-04T06:10:37.898Z,76.40
2023-05-04T06:13:39.738Z,76.20
2023-05-04T06:16:41.562Z,76.00
2023-05-04T06:19:43.268Z,75.70
2023-05-04T06:22:45.589Z,75.50
2023-05-04T06:25:47.208Z,75.00
2023-05-04T06:28:48.834Z,74.80
2023-05-04T06:31:50.504Z,74.60
2023-05-04T06:34:55.579Z,74.40
2023-05-04T06:37:57.238Z,74.10
2023-05-04T06:40:58.964Z,74.00
2023-05-04T06:44:00.709Z,73.80
2023-05-04T06:47:02.376Z,73.60
2023-05-04T06:50:09.324Z,73.50
2023-05-04T06:53:11.826Z,73.20
2023-05-04T06:56:13.468Z,73.00
2023-05-04T06:59:16.906Z,72.80
2023-05-04T07:02:18.656Z,72.50
2023-05-04T07:05:22.206Z,72.50
2023-05-04T07:08:23.904Z,72.60
2023-05-04T07:11:26.783Z,72.50
2023-05-04T07:14:28.567Z,72.20
2023-05-04T07:17:31.959Z,71.70
2023-05-04T07:20:33.622Z,71.10
2023-05-04T07:23:35.343Z,70.60
2023-05-04T07:26:36.981Z,70.20
2023-05-04T07:29:38.765Z,70.00
2023-05-04T07:32:40.911Z,69.70
2023-05-04T07:35:42.618Z,69.40
2023-05-04T07:38:44.278Z,68.90
2023-05-04T07:41:46.655Z,68.30
2023-05-04T07:44:49.970Z,67.90
2023-05-04T07:47:52.751Z,67.70
2023-05-04T07:50:54.808Z,67.50
2023-05-04T07:53:57.770Z,67.30
2023-05-04T07:57:03.260Z,67.30
2023-05-04T08:00:05.986Z,67.40
2023-05-04T08:03:07.972Z,67.40
2023-05-04T08:06:09.655Z,67.20
2023-05-04T08:09:11.399Z,67.00
2023-05-04T08:12:13.020Z,66.60
2023-05-04T08:15:14.851Z,66.30
2023-05-04T08:18:16.633Z,65.90
2023-05-04T08:21:18.340Z,65.50
2023-05-04T08:24:20.037Z,65.00
2023-05-04T08:27:21.720Z,64.50
2023-05-04T08:30:23.607Z,64.60
2023-05-04T08:33:25.633Z,65.10
2023-05-04T08:36:27.492Z,65.40
2023-05-04T08:39:29.217Z,65.50
2023-05-04T08:42:31.570Z,65.50
2023-05-04T08:45:33.673Z,65.00
2023-05-04T08:48:35.388Z,64.40
2023-05-04T08:51:37.731Z,64.10
2023-05-04T08:54:39.927Z,64.10
2023-05-04T08:57:42.235Z,64.40
2023-05-04T09:00:44.113Z,64.60
2023-05-04T09:03:46.982Z,64.30
2023-05-04T09:06:49.193Z,63.90
2023-05-04T09:09:51.680Z,63.70
2023-05-04T09:12:55.849Z,64.00
2023-05-04T09:16:00.557Z,64.10
2023-05-04T09:19:03.465Z,64.50
2023-05-04T09:22:17.310Z,64.60
2023-05-04T09:25:19.766Z,64.60
2023-05-04T09:28:35.532Z,64.60
2023-05-04T09:31:50.285Z,64.20
2023-05-04T09:34:52.882Z,63.50
2023-05-04T09:37:54.688Z,63.10
2023-05-04T09:40:56.533Z,63.10
2023-05-04T09:43:59.521Z,62.90
2023-05-04T09:47:01.161Z,62.60
2023-05-04T09:50:21.040Z,62.30
2023-05-04T09:53:27.394Z,61.90
2023-05-04T09:56:41.112Z,61.70
2023-05-04T09:59:42.859Z,61.30
2023-05-04T10:02:46.414Z,61.00
2023-05-04T10:05:49.090Z,60.80
2023-05-04T10:08:51.429Z,60.80
2023-05-04T10:11:53.513Z,60.90
2023-05-04T10:14:55.364Z,60.90
2023-05-04T10:18:11.118Z,60.80
2023-05-04T10:21:33.280Z,60.50
2023-05-04T10:24:48.175Z,59.80
2023-05-04T10:28:04.759Z,59.20
2023-05-04T10:31:07.390Z,58.60
2023-05-04T10:34:09.487Z,58.70
2023-05-04T10:37:16.981Z,58.60
2023-05-04T10:40:18.673Z,58.30
2023-05-04T10:43:26.692Z,58.10
2023-05-04T10:46:28.995Z,57.80
2023-05-04T10:49:30.744Z,57.90
2023-05-04T10:52:33.228Z,57.90
2023-05-04T10:55:45.072Z,58.00
2023-05-04T10:58:46.712Z,57.90
2023-05-04T11:01:48.664Z,57.80
2023-05-04T11:05:06.971Z,57.60
2023-05-04T11:08:38.559Z,57.80
2023-05-04T11:11:40.317Z,58.00
2023-05-04T11:14:43.100Z,58.00
2023-05-04T11:17:46.481Z,58.00
2023-05-04T11:20:48.113Z,58.10
2023-05-04T11:23:57.913Z,58.20
2023-05-04T11:26:59.572Z,58.10
2023-05-04T11:30:05.019Z,57.90
2023-05-04T11:33:16.231Z,57.50
2023-05-04T11:36:18.001Z,57.30
2023-05-04T11:39:19.962Z,57.00
2023-05-04T11:42:21.669Z,56.80
2023-05-04T11:45:27.489Z,56.50
2023-05-04T11:48:30.115Z,56.40
2023-05-04T11:51:31.779Z,56.20
2023-05-04T11:54:33.594Z,55.70
2023-05-04T11:57:37.194Z,55.00
2023-05-04T12:00:43.136Z,54.90
2023-05-04T12:03:54.009Z,54.80
2023-05-04T12:06:56.061Z,55.00
2023-05-04T12:09:57.797Z,55.40
2023-05-04T12:13:01.593Z,55.70
2023-05-04T12:16:17.025Z,56.10
2023-05-04T12:19:18.765Z,56.40
2023-05-04T12:22:28.469Z,56.50
2023-05-04T12:25:30.334Z,56.60
2023-05-04T12:28:31.971Z,56.80
2023-05-04T12:31:33.638Z,57.00
2023-05-04T12:34:37.248Z,56.90
2023-05-04T12:37:38.971Z,56.10
2023-05-04T12:40:40.801Z,55.20
2023-05-04T12:43:43.048Z,55.10
2023-05-04T12:46:44.728Z,55.00
2023-05-04T12:49:46.400Z,55.00
2023-05-04T12:52:48.501Z,55.10
2023-05-04T12:55:50.166Z,55.20
2023-05-04T12:58:51.817Z,55.30
2023-05-04T13:01:53.692Z,55.60
2023-05-04T13:04:55.492Z,55.90
2023-05-04T13:07:58.136Z,56.20
2023-05-04T13:10:59.778Z,56.50
2023-05-04T13:14:01.801Z,57.00
2023-05-04T13:17:05.055Z,57.30
2023-05-04T13:20:07.361Z,57.50
2023-05-04T13:23:09.533Z,57.50
2023-05-04T13:26:11.599Z,57.10
2023-05-04T13:29:13.228Z,56.90
2023-05-04T13:32:14.931Z,56.90
2023-05-04T13:35:16.610Z,56.90
2023-05-04T13:38:18.320Z,56.50
2023-05-04T13:41:20.664Z,56.00
2023-05-04T13:44:22.513Z,55.40
2023-05-04T13:47:24.615Z,55.00
2023-05-04T13:50:26.378Z,55.20
2023-05-04T13:53:28.128Z,55.10
2023-05-04T13:56:29.980Z,54.60
2023-05-04T13:59:31.701Z,54.20
2023-05-04T14:02:33.859Z,54.10
2023-05-04T14:05:36.380Z,54.30
2023-05-04T14:08:38.251Z,54.80
2023-05-04T14:11:39.876Z,54.60
2023-05-04T14:14:41.918Z,54.50
2023-05-04T14:17:43.686Z,54.30
2023-05-04T14:20:45.704Z,54.00
2023-05-04T14:23:47.645Z,54.00
2023-05-04T14:26:49.285Z,53.70
2023-05-04T14:29:52.208Z,53.40
2023-05-04T14:32:55.125Z,53.00
2023-05-04T14:35:56.714Z,53.20
2023-05-04T14:39:00.347Z,53.50
2023-05-04T14:42:02.706Z,53.80
2023-05-04T14:45:06.317Z,54.30
2023-05-04T14:48:08.714Z,54.90
2023-05-04T14:51:12.510Z,55.30
2023-05-04T14:54:14.343Z,55.30
2023-05-04T14:57:16.194Z,54.80
2023-05-04T15:00:19.620Z,53.90
2023-05-04T15:03:21.836Z,52.90
2023-05-04T15:06:23.572Z,52.10
2023-05-04T15:09:25.268Z,51.50
2023-05-04T15:12:27.793Z,51.10
2023-05-04T15:15:29.423Z,50.80
2023-05-04T15:18:31.484Z,50.80
2023-05-04T15:21:33.295Z,50.80
2023-05-04T15:24:35.430Z,50.90
2023-05-04T15:27:37.170Z,50.50
2023-05-04T15:30:41.849Z,50.10
2023-05-04T15:33:44.004Z,49.80
2023-05-04T15:36:45.777Z,49.80
2023-05-04T15:39:47.465Z,50.00
2023-05-04T15:42:50.602Z,50.30
2023-05-04T15:45:52.687Z,50.40
2023-05-04T15:48:54.817Z,49.70
2023-05-04T15:51:56.455Z,48.60
2023-05-04T15:55:04.214Z,47.60
2023-05-04T15:58:15.121Z,46.90
2023-05-04T16:01:16.917Z,46.60
2023-05-04T16:04:18.656Z,46.10
2023-05-04T16:07:20.303Z,45.90
2023-05-04T16:10:22.265Z,46.40
2023-05-04T16:13:24.513Z,47.20
2023-05-04T16:16:26.474Z,47.60
2023-05-04T16:19:28.187Z,47.70
2023-05-04T16:22:30.489Z,47.00
2023-05-04T16:25:32.186Z,46.50
2023-05-04T16:28:34.570Z,46.90
2023-05-04T16:31:36.403Z,47.90
2023-05-04T16:34:38.506Z,47.80
2023-05-04T16:37:40.353Z,48.20
2023-05-04T16:40:42.492Z,49.20
2023-05-04T16:43:44.340Z,50.30
2023-05-04T16:46:46.266Z,50.80
2023-05-04T16:49:48.148Z,51.30
2023-05-04T16:52:49.840Z,51.80
2023-05-04T16:55:52.248Z,52.10
2023-05-04T16:58:53.887Z,52.50
2023-05-04T17:01:56.373Z,52.50
2023-05-04T17:04:58.145Z,52.50
2023-05-04T17:07:59.767Z,52.50
2023-05-04T17:11:01.435Z,52.90
2023-05-04T17:14:03.644Z,53.40
2023-05-04T17:17:06.681Z,53.70
2023-05-04T17:20:09.297Z,53.90
2023-05-04T17:23:11.479Z,54.00
2023-05-04T17:26:13.180Z,54.20
2023-05-04T17:29:15.016Z,54.30
2023-05-04T17:32:16.698Z,54.50
2023-05-04T17:35:25.192Z,54.80
2023-05-04T17:38:27.770Z,55.20
2023-05-04T17:41:29.464Z,55.60
2023-05-04T17:44:32.770Z,56.30
2023-05-04T17:47:34.448Z,57.70
2023-05-04T17:50:36.173Z,59.00
2023-05-04T17:53:37.894Z,60.30
2023-05-04T17:56:39.515Z,61.50
2023-05-04T17:59:41.182Z,62.50
2023-05-04T18:02:42.939Z,63.30
2023-05-04T18:05:46.189Z,64.10
2023-05-04T18:08:47.872Z,64.60
2023-05-04T18:11:49.507Z,65.20
2023-05-04T18:14:52.894Z,65.70
2023-05-04T18:17:54.564Z,65.90
2023-05-04T18:21:00.713Z,66.10
2023-05-04T18:24:03.607Z,66.30
2023-05-04T18:27:05.350Z,66.60
2023-05-04T18:30:08.402Z,67.10
2023-05-04T18:33:10.443Z,67.70
2023-05-04T18:36:12.129Z,68.20
2023-05-04T18:39:14.209Z,68.70
2023-05-04T18:42:15.873Z,69.10
2023-05-04T18:45:17.591Z,69.20
2023-05-04T18:48:19.285Z,69.40
2023-05-04T18:51:20.919Z,69.70
2023-05-04T18:54:24.274Z,70.00
2023-05-04T18:57:27.271Z,70.30
2023-05-04T19:00:30.619Z,70.60
2023-05-04T19:03:32.840Z,71.10
2023-05-04T19:06:34.616Z,71.40
2023-05-04T19:09:37.354Z,71.70
2023-05-04T19:12:39.316Z,72.20
2023-05-04T19:15:41.210Z,72.50
2023-05-04T19:18:43.828Z,72.90
2023-05-04T19:21:45.645Z,73.20
2023-05-04T19:24:50.797Z,73.40
2023-05-04T19:27:52.436Z,73.60
2023-05-04T19:30:54.291Z,73.70
2023-05-04T19:33:56.097Z,73.80
2023-05-04T19:36:59.186Z,73.90
2023-05-04T19:40:00.864Z,74.00
2023-05-04T19:43:03.858Z,74.00
2023-05-04T19:46:05.634Z,74.20
2023-05-04T19:49:07.400Z,74.30
2023-05-04T19:52:09.035Z,74.30
2023-05-04T19:55:10.888Z,74.30
2023-05-04T19:58:12.541Z,74.30
2023-05-04T20:01:14.262Z,74.40
2023-05-04T20:04:16.003Z,74.60
2023-05-04T20:07:17.806Z,74.80
2023-05-04T20:10:19.554Z,75.00
2023-05-04T20:13:21.577Z,75.10
2023-05-04T20:16:23.322Z,75.20
2023-05-04T20:19:25.043Z,75.20
2023-05-04T20:22:26.845Z,75.30
2023-05-04T20:25:28.776Z,75.50
2023-05-04T20:28:30.408Z,75.50
2023-05-04T20:31:32.121Z,75.60
2023-05-04T20:34:34.069Z,75.70
2023-05-04T20:37:35.783Z,75.80
2023-05-04T20:40:37.685Z,76.10
2023-05-04T20:43:39.658Z,76.20
2023-05-04T20:46:41.397Z,76.20
2023-05-04T20:49:43.371Z,76.30
2023-05-04T20:52:45.732Z,76.40
2023-05-04T20:55:47.374Z,76.60
2023-05-04T20:58:49.008Z,76.90
2023-05-04T21:01:51.013Z,76.90
2023-05-04T21:04:52.789Z,77.00
2023-05-04T21:07:54.814Z,77.00
2023-05-04T21:10:56.476Z,77.20
2023-05-04T21:13:58.291Z,77.30
2023-05-04T21:16:59.946Z,77.40
2023-05-04T21:20:01.794Z,77.50
2023-05-04T21:23:03.589Z,77.70
2023-05-04T21:26:05.348Z,77.70
2023-05-04T21:29:11.680Z,77.80
2023-05-04T21:32:13.317Z,77.80
2023-05-04T21:35:16.357Z,77.80
2023-05-04T21:38:20.242Z,77.80
2023-05-04T21:41:23.422Z,78.00
2023-05-04T21:44:25.268Z,78.20
2023-05-04T21:47:27.183Z,78.30
